PROFILE

 METAR AND TAF INFORMATION
ADDS - METARS form results

(0655 UTC 19 July 2019)
http://aviationweather.gov/metar/data/
 
LPPR 190630Z 00000KT 0200 R17/0275 FG VV001 15/15 Q1015
LPPR 190600Z 00000KT 0300 R17/0275 FG VV001 15/15 Q1014
TAF LPPR 190500Z 1906/2006 VRB03KT 0200 FG VV001 TEMPO 1906/1908 18005KT 1500 BR BKN002 BECMG 1908/1911 30005KT 9999 NSW SCT012 BECMG 1912/1915 34015KT CAVOK BECMG 1920/1923 34005KT 3000 BR BKN004 PROB30 1923/2006 VRB03KT 0300 FG VV001 

 AIRPORT MAP

 RUNWAY INFORMATION
Runway 17 Runway length 11417 ft Runway width 148 ft
Runway elevation 151 ft Runway displaced threshold 984 ft Runway heading 169
Runway 35 Runway length 11417 ft Runway width 148 ft
Runway elevation 226 ft Runway displaced threshold 492 ft Runway heading 349

 AIRPORT FREQUENCIES
Type APP Name APP Frequency 121.1 MHZ
Type ATIS Name ATIS Frequency 124.3 MHZ
Type TWR Name TWR Frequency 118 MHZ

 AIRPORT NEAR NAVIGATION AIDS
Type NDB Name Porto Frequency 367 KHZ
Type NDB Name Porto Frequency 327 KHZ
Type VOR-DME Name Porto Frequency 114100 KHZ